Main page
METAR-TAF:

METAR-TAF

Airports :

Republic Airport

Farmingdale, New York, United States

latitude: 40-44-03N, longitude: 073-25-01W, elevation: 79 ft

Current weather observation

The report was made 15 minutes ago, at 03:53 UTC
Wind 6 mph from the Southwest
Temperature 46°F
Humidity 76%
Pressure 29.96 in. Hg
Visibility: 10 miles
Overcast at a height of 10000 ft

METAR: KFRG 250353Z 23005KT 10SM OVC100 08/04 A2996 RMK AO2 SLP146 T00830039

Time: 23:08 (04:08 UTC)


TAF: missing

Weather observations and forecasts of more than 4000 airports (METAR and TAF reports).

The available stations are represented by yellow and red dots on the map.

Hover mouse over dot to see the name of the station.

Then click to see weather observations and forecasts.

To change the map : click on the green buttons with a black cross to zoom in, on the green button with a dash to zoom out, or on the green arrows for adjacent maps.


METAR-TAF: